Time;durP1;ratioP1;P1;durP2;ratioP2;P2;SDS_P1;SDS_P2;PMS_P1;PMS_P2;Temp;Humidity;BMP_temperature;BMP_pressure;BME280_temperature;BME280_humidity;BME280_pressure;Samples;Min_cycle;Max_cycle;Signal;HPM_P1;HPM_P2
2022/06/18 00:01:51;;;;;;;4.60;2.55;;;23.40;56.10;;;;;;5078040;28;20047;-77
2022/06/18 00:04:23;;;;;;;5.10;2.80;;;23.60;55.70;;;;;;5063986;28;20119;-76
2022/06/18 00:07:11;;;;;;;4.28;2.85;;;23.70;55.60;;;;;;5091643;28;20095;-77
2022/06/18 00:09:42;;;;;;;4.32;2.55;;;23.70;55.50;;;;;;5091238;28;20044;-77
2022/06/18 00:14:55;;;;;;;3.80;2.75;;;23.60;55.80;;;;;;5091597;28;20089;-77
2022/06/18 00:17:21;;;;;;;4.40;2.60;;;23.60;56.30;;;;;;5088718;28;20036;-79
2022/06/18 00:19:48;;;;;;;4.20;2.70;;;23.70;56.40;;;;;;5092814;28;20023;-78
2022/06/18 00:22:19;;;;;;;4.22;2.75;;;23.90;55.70;;;;;;5091957;28;20066;-77
2022/06/18 00:24:45;;;;;;;5.22;2.70;;;24.00;55.60;;;;;;5093504;28;20505;-78
2022/06/18 00:27:14;;;;;;;4.80;3.08;;;24.00;55.70;;;;;;5073928;28;20035;-78
2022/06/18 00:29:39;;;;;;;3.83;2.80;;;23.90;56.40;;;;;;5089251;28;20028;-79
2022/06/18 00:32:06;;;;;;;5.68;2.75;;;23.90;56.50;;;;;;5072624;28;20028;-76
2022/06/18 00:34:32;;;;;;;6.15;3.00;;;24.00;56.50;;;;;;5087914;28;20114;-78
2022/06/18 00:36:58;;;;;;;4.30;2.70;;;24.10;56.20;;;;;;5091225;28;20102;-78
2022/06/18 00:39:24;;;;;;;5.93;2.95;;;24.20;56.10;;;;;;5091905;28;20054;-79
2022/06/18 00:41:53;;;;;;;5.60;3.40;;;24.20;56.10;;;;;;5074226;28;20032;-79
2022/06/18 00:44:31;;;;;;;5.15;2.78;;;24.10;56.00;;;;;;5074606;28;20114;-79
2022/06/18 00:47:09;;;;;;;3.95;2.90;;;24.00;56.20;;;;;;5073626;28;20032;-76
2022/06/18 00:49:53;;;;;;;4.82;3.13;;;23.80;56.40;;;;;;5072481;28;20120;-76
2022/06/18 00:52:26;;;;;;;5.93;2.90;;;23.70;56.70;;;;;;5077627;28;20016;-77
2022/06/18 00:55:06;;;;;;;4.60;2.80;;;23.70;56.60;;;;;;5091535;28;20123;-79
2022/06/18 00:57:44;;;;;;;3.92;2.75;;;23.80;56.80;;;;;;5091569;28;20095;-78
2022/06/18 01:00:22;;;;;;;4.40;2.80;;;23.80;56.00;;;;;;5090846;28;20032;-76
2022/06/18 01:02:49;;;;;;;4.40;2.72;;;24.00;55.80;;;;;;5087887;28;20420;-77
2022/06/18 01:05:25;;;;;;;6.60;2.90;;;24.00;55.90;;;;;;5082323;28;20024;-78
2022/06/18 01:08:03;;;;;;;5.50;2.80;;;24.00;55.80;;;;;;5089847;28;20103;-78
2022/06/18 01:10:33;;;;;;;4.47;2.58;;;23.90;55.80;;;;;;5084679;28;20028;-77
2022/06/18 01:13:02;;;;;;;4.43;2.78;;;23.80;55.60;;;;;;5075810;28;20031;-78
2022/06/18 01:15:30;;;;;;;4.32;2.80;;;23.80;55.70;;;;;;5074040;28;20032;-76
2022/06/18 01:17:56;;;;;;;4.00;2.75;;;23.80;55.60;;;;;;5089944;28;20028;-78
2022/06/18 01:20:24;;;;;;;4.65;3.00;;;24.00;55.50;;;;;;5091351;28;20028;-79
2022/06/18 01:23:07;;;;;;;6.47;3.10;;;24.10;55.10;;;;;;5091028;28;20146;-78
2022/06/18 01:25:32;;;;;;;4.13;2.80;;;24.20;55.00;;;;;;5090731;28;20047;-79
2022/06/18 01:27:59;;;;;;;4.30;2.90;;;24.20;54.60;;;;;;5090468;28;20370;-78
2022/06/18 01:30:31;;;;;;;4.85;2.80;;;24.20;54.90;;;;;;5091297;28;20463;-77
2022/06/18 01:32:57;;;;;;;3.63;2.70;;;24.20;55.10;;;;;;5089046;28;20032;-77
2022/06/18 01:35:24;;;;;;;3.65;2.75;;;24.10;54.80;;;;;;5077427;28;20032;-78
2022/06/18 01:37:50;;;;;;;4.68;2.97;;;23.90;55.20;;;;;;5068722;28;20044;-78
2022/06/18 01:40:42;;;;;;;3.92;2.67;;;23.80;55.40;;;;;;5069693;28;20050;-80
2022/06/18 01:43:12;;;;;;;4.35;2.67;;;23.80;55.50;;;;;;5011315;28;20175;-80
2022/06/18 01:45:39;;;;;;;3.90;2.72;;;23.70;55.50;;;;;;4979670;28;20120;-78
2022/06/18 01:48:23;;;;;;;4.57;2.90;;;23.60;55.90;;;;;;5006649;28;20485;-79
2022/06/18 01:51:00;;;;;;;4.55;2.80;;;23.60;56.60;;;;;;5012420;28;20030;-77
2022/06/18 01:53:39;;;;;;;4.70;3.10;;;23.60;56.10;;;;;;5013014;28;20069;-79
2022/06/18 01:56:13;;;;;;;4.05;2.90;;;23.50;56.00;;;;;;4988439;28;20473;-79
2022/06/18 01:58:53;;;;;;;3.85;2.88;;;23.60;55.80;;;;;;5007529;28;20481;-79
2022/06/18 02:01:24;;;;;;;5.57;2.90;;;23.70;55.90;;;;;;4986791;28;20038;-77
2022/06/18 02:03:51;;;;;;;5.03;2.60;;;23.80;55.50;;;;;;5013359;28;20469;-78
2022/06/18 02:06:17;;;;;;;4.20;2.80;;;23.80;56.00;;;;;;4996090;28;20088;-78
2022/06/18 02:08:44;;;;;;;5.32;2.92;;;23.70;55.60;;;;;;5013229;28;20037;-79
2022/06/18 02:11:12;;;;;;;3.53;2.63;;;23.60;55.60;;;;;;5012487;28;20037;-78
2022/06/18 02:13:45;;;;;;;5.70;3.17;;;23.50;56.00;;;;;;4996404;28;20433;-78
2022/06/18 02:16:15;;;;;;;4.32;3.03;;;23.40;56.00;;;;;;5013192;28;20026;-78
2022/06/18 02:18:43;;;;;;;5.22;2.90;;;23.30;56.50;;;;;;5012496;28;20049;-79
2022/06/18 02:21:11;;;;;;;5.10;3.30;;;23.30;56.60;;;;;;5064640;28;20025;-77
2022/06/18 02:23:38;;;;;;;4.90;3.25;;;23.20;57.00;;;;;;5074115;28;20047;-79
2022/06/18 02:26:06;;;;;;;3.72;2.90;;;23.10;57.60;;;;;;5073012;28;20364;-78
2022/06/18 02:28:39;;;;;;;4.85;3.50;;;23.10;57.70;;;;;;5070221;28;20487;-77
2022/06/18 02:31:05;;;;;;;4.72;3.25;;;23.10;57.90;;;;;;5075376;28;20108;-77
2022/06/18 02:33:37;;;;;;;4.30;3.17;;;23.10;57.90;;;;;;5069535;28;20029;-78
2022/06/18 02:36:16;;;;;;;5.03;3.63;;;22.90;58.40;;;;;;5074499;28;20025;-79
2022/06/18 02:38:43;;;;;;;4.80;3.37;;;22.70;58.80;;;;;;5070334;28;20075;-78
2022/06/18 02:41:10;;;;;;;6.13;3.15;;;22.50;59.10;;;;;;5073206;28;20025;-78
2022/06/18 02:43:38;;;;;;;5.38;3.70;;;22.60;59.30;;;;;;5072976;28;20032;-79
2022/06/18 02:46:04;;;;;;;6.28;3.42;;;22.70;58.90;;;;;;5074667;28;20031;-77
2022/06/18 02:48:32;;;;;;;5.88;3.55;;;22.80;58.80;;;;;;5068542;28;20024;-78
2022/06/18 02:50:59;;;;;;;6.35;3.50;;;22.90;58.80;;;;;;5074493;28;20426;-77
2022/06/18 02:53:26;;;;;;;4.82;3.53;;;22.90;58.40;;;;;;5073239;28;20486;-79
2022/06/18 02:55:56;;;;;;;4.47;3.70;;;23.00;58.30;;;;;;5071357;28;20025;-79
2022/06/18 02:58:27;;;;;;;4.28;3.35;;;23.00;58.10;;;;;;5072383;28;20020;-77
2022/06/18 03:01:00;;;;;;;4.10;2.92;;;23.10;58.50;;;;;;5070826;28;20213;-78
2022/06/18 03:03:30;;;;;;;4.28;3.28;;;22.90;58.50;;;;;;5074063;28;20029;-77
2022/06/18 03:05:56;;;;;;;4.65;3.50;;;22.90;58.50;;;;;;5073780;28;20040;-77
2022/06/18 03:08:24;;;;;;;5.15;3.40;;;22.80;58.80;;;;;;5061567;28;20552;-78
2022/06/18 03:13:38;;;;;;;4.47;3.13;;;22.70;59.20;;;;;;5065521;28;20027;-78
2022/06/18 03:16:08;;;;;;;4.80;4.05;;;22.70;59.30;;;;;;5073377;28;20167;-78
2022/06/18 03:18:35;;;;;;;4.88;3.30;;;22.60;59.60;;;;;;5073584;28;20082;-79
2022/06/18 03:21:33;;;;;;;6.90;3.55;;;22.70;59.30;;;;;;5073912;28;20052;-77
2022/06/18 03:23:59;;;;;;;7.25;4.13;;;22.70;59.30;;;;;;4992420;28;20042;-77
2022/06/18 03:26:25;;;;;;;6.00;3.50;;;22.70;59.30;;;;;;4992224;28;20039;-78
2022/06/18 03:28:51;;;;;;;4.68;3.47;;;22.80;59.20;;;;;;4992248;28;20048;-80
2022/06/18 03:31:17;;;;;;;4.63;3.53;;;23.00;58.90;;;;;;4991400;28;20049;-79
2022/06/18 03:33:42;;;;;;;5.32;3.70;;;23.10;58.50;;;;;;4991640;28;20030;-79
2022/06/18 03:36:12;;;;;;;4.50;3.53;;;23.10;58.40;;;;;;4975562;28;20038;-78
2022/06/18 03:38:38;;;;;;;4.70;3.30;;;23.10;58.50;;;;;;4991724;28;20145;-78
2022/06/18 03:41:05;;;;;;;5.47;3.50;;;23.10;58.10;;;;;;4975281;28;20117;-78
2022/06/18 03:43:34;;;;;;;5.10;3.90;;;23.00;58.50;;;;;;4991802;28;20477;-76
2022/06/18 03:46:05;;;;;;;6.45;3.65;;;22.80;58.50;;;;;;4975172;28;20033;-78
2022/06/18 03:48:46;;;;;;;6.72;3.60;;;22.70;58.70;;;;;;4991798;28;20046;-77
2022/06/18 03:51:14;;;;;;;5.20;3.70;;;22.60;58.80;;;;;;4991997;28;20405;-78
2022/06/18 03:53:40;;;;;;;7.68;3.63;;;22.60;59.00;;;;;;4976425;28;20502;-79
2022/06/18 03:56:09;;;;;;;5.07;3.67;;;22.40;59.60;;;;;;4990669;28;20552;-79
2022/06/18 03:58:34;;;;;;;5.00;3.45;;;22.50;59.50;;;;;;4991332;28;20042;-78
2022/06/18 04:01:00;;;;;;;5.63;3.83;;;22.60;59.90;;;;;;5043682;28;20502;-79
2022/06/18 04:03:26;;;;;;;6.47;3.92;;;22.70;59.80;;;;;;5072171;28;20479;-78
2022/06/18 04:05:52;;;;;;;6.07;3.80;;;22.70;59.60;;;;;;5071556;28;20028;-78
2022/06/18 04:08:19;;;;;;;7.10;3.85;;;22.90;59.50;;;;;;5068968;28;20020;-78
2022/06/18 04:10:45;;;;;;;6.05;3.72;;;22.90;59.60;;;;;;5068674;28;20028;-77
2022/06/18 04:13:11;;;;;;;5.00;3.90;;;23.10;59.40;;;;;;5072426;28;20025;-78
2022/06/18 04:15:36;;;;;;;5.15;3.60;;;23.40;58.90;;;;;;5070162;28;20032;-77
2022/06/18 04:18:03;;;;;;;5.20;3.67;;;23.50;58.90;;;;;;5070699;28;20036;-80
2022/06/18 04:20:33;;;;;;;5.07;3.60;;;23.60;58.60;;;;;;5072995;28;20029;-79
2022/06/18 04:22:59;;;;;;;7.57;3.60;;;23.70;58.80;;;;;;5071580;28;20144;-77
2022/06/18 04:25:25;;;;;;;5.45;3.40;;;23.80;58.10;;;;;;5073046;28;20111;-78
2022/06/18 04:27:51;;;;;;;5.43;3.50;;;23.70;58.60;;;;;;5067350;28;20029;-76
2022/06/18 04:30:18;;;;;;;5.15;3.50;;;23.70;59.00;;;;;;5070964;28;20398;-78
2022/06/18 04:32:44;;;;;;;5.97;3.60;;;23.90;58.40;;;;;;5070925;28;20471;-77
2022/06/18 04:35:12;;;;;;;4.53;3.30;;;24.20;58.10;;;;;;5071325;28;20035;-76
2022/06/18 04:37:41;;;;;;;4.38;3.30;;;24.40;57.70;;;;;;5080327;28;20488;-77
2022/06/18 04:40:07;;;;;;;4.57;3.40;;;24.40;57.70;;;;;;5073285;28;20605;-79
2022/06/18 04:42:33;;;;;;;6.97;3.10;;;24.40;57.50;;;;;;5074041;28;20032;-79
2022/06/18 04:45:00;;;;;;;4.82;3.67;;;24.60;57.40;;;;;;5088823;28;20410;-78
2022/06/18 04:47:26;;;;;;;4.50;3.65;;;24.70;57.30;;;;;;5067429;28;20106;-80
2022/06/18 04:49:51;;;;;;;6.57;3.33;;;24.90;57.20;;;;;;5091756;28;20024;-77
2022/06/18 04:52:17;;;;;;;4.93;3.50;;;25.10;56.90;;;;;;5091745;28;20027;-79
2022/06/18 04:54:43;;;;;;;5.55;3.60;;;25.10;56.70;;;;;;5090953;28;20028;-79
2022/06/18 04:57:09;;;;;;;6.43;3.65;;;25.10;56.60;;;;;;5090917;28;20028;-77
2022/06/18 04:59:35;;;;;;;5.47;3.45;;;25.20;56.50;;;;;;5091388;28;20474;-80
2022/06/18 05:02:05;;;;;;;5.95;3.58;;;25.20;56.50;;;;;;5088461;28;20020;-77
2022/06/18 05:04:31;;;;;;;5.45;3.60;;;25.20;55.80;;;;;;5091409;28;20028;-78
2022/06/18 05:06:57;;;;;;;7.25;3.58;;;25.10;56.00;;;;;;5089425;28;20124;-78
2022/06/18 05:09:23;;;;;;;6.57;3.65;;;25.20;55.20;;;;;;5087128;28;20102;-79
2022/06/18 05:11:49;;;;;;;4.47;3.33;;;25.40;55.60;;;;;;5092006;28;20471;-79
2022/06/18 05:14:15;;;;;;;5.68;3.20;;;25.60;55.50;;;;;;5083718;28;20035;-78
2022/06/18 05:16:42;;;;;;;4.35;3.15;;;25.70;54.80;;;;;;5090748;28;20068;-80
2022/06/18 05:19:22;;;;;;;5.13;3.22;;;25.80;54.70;;;;;;5077223;28;20043;-79
2022/06/18 05:21:47;;;;;;;3.97;3.10;;;25.80;54.90;;;;;;5091286;28;20028;-77
2022/06/18 05:24:13;;;;;;;4.45;3.35;;;25.90;55.00;;;;;;5076385;28;20051;-76
2022/06/18 05:26:41;;;;;;;4.43;3.08;;;26.00;54.80;;;;;;5076535;28;20100;-77
2022/06/18 05:29:10;;;;;;;5.15;3.20;;;26.20;54.50;;;;;;5076637;28;20111;-78
2022/06/18 05:31:38;;;;;;;4.68;3.35;;;26.40;54.70;;;;;;5075978;28;20030;-78
2022/06/18 05:34:04;;;;;;;5.05;3.33;;;26.60;54.50;;;;;;5086540;28;20052;-78
2022/06/18 05:36:30;;;;;;;5.95;3.30;;;26.80;53.80;;;;;;5096004;28;20443;-77
2022/06/18 05:38:57;;;;;;;4.90;3.58;;;26.90;53.70;;;;;;5085670;28;20048;-80
2022/06/18 05:41:23;;;;;;;5.13;3.00;;;26.80;53.90;;;;;;4386326;28;10000753;-76
2022/06/18 05:43:50;;;;;;;4.65;3.10;;;26.90;54.00;;;;;;5078883;28;20020;-77
2022/06/18 05:46:16;;;;;;;4.80;3.10;;;27.00;53.50;;;;;;5065634;28;20590;-76
2022/06/18 05:48:42;;;;;;;4.75;3.10;;;26.70;54.50;;;;;;5055564;28;20403;-76
2022/06/18 05:51:08;;;;;;;6.55;3.30;;;26.70;54.90;;;;;;5054937;28;20480;-76
2022/06/18 05:53:33;;;;;;;5.00;3.22;;;27.00;54.60;;;;;;5087157;28;20039;-75
2022/06/18 05:55:59;;;;;;;7.38;3.20;;;27.10;54.60;;;;;;5059745;28;20024;-76
2022/06/18 05:58:25;;;;;;;6.07;3.25;;;27.20;54.30;;;;;;5054923;28;20119;-73
2022/06/18 06:00:51;;;;;;;5.65;3.35;;;27.60;54.80;;;;;;5054416;28;20029;-72
2022/06/18 06:03:17;;;;;;;5.80;3.35;;;27.80;54.40;;;;;;5072673;28;20111;-76
2022/06/18 06:05:42;;;;;;;5.47;3.03;;;27.90;53.40;;;;;;5054609;28;20568;-78
2022/06/18 06:08:12;;;;;;;5.63;3.58;;;28.00;53.30;;;;;;5055618;28;20083;-75
2022/06/18 06:13:24;;;;;;;5.07;3.20;;;28.20;52.40;;;;;;5073682;28;20097;-76
2022/06/18 06:15:50;;;;;;;6.78;3.28;;;28.50;51.80;;;;;;5072676;28;20441;-76
2022/06/18 06:18:18;;;;;;;4.53;2.80;;;28.60;52.00;;;;;;5092974;28;20118;-75
2022/06/18 06:20:49;;;;;;;3.90;2.83;;;28.70;50.50;;;;;;5074343;28;20024;-75
2022/06/18 06:23:15;;;;;;;4.55;2.83;;;28.80;50.80;;;;;;5090842;28;20401;-79
2022/06/18 06:25:42;;;;;;;4.80;2.70;;;28.80;51.10;;;;;;5094202;28;20024;-75
2022/06/18 06:28:14;;;;;;;3.50;2.60;;;28.50;51.00;;;;;;5076116;28;20120;-75
2022/06/18 06:30:40;;;;;;;4.18;2.80;;;28.30;51.30;;;;;;5075347;28;20014;-76
2022/06/18 06:33:06;;;;;;;4.35;2.80;;;28.40;51.40;;;;;;5079863;28;20089;-72
2022/06/18 06:35:31;;;;;;;5.05;2.58;;;28.60;51.20;;;;;;5083268;28;20035;-75
2022/06/18 06:37:57;;;;;;;5.15;2.38;;;28.70;51.40;;;;;;5093344;28;20482;-75
2022/06/18 06:40:24;;;;;;;5.88;2.80;;;28.60;51.10;;;;;;5072550;28;20036;-78
2022/06/18 06:42:53;;;;;;;5.00;3.22;;;28.40;50.80;;;;;;5074467;28;20031;-76
2022/06/18 06:45:22;;;;;;;7.25;2.50;;;27.90;51.10;;;;;;5075248;28;20028;-77
2022/06/18 06:47:48;;;;;;;6.57;2.70;;;27.20;51.80;;;;;;5075967;28;20019;-74
2022/06/18 06:50:16;;;;;;;5.47;2.50;;;27.30;52.80;;;;;;5095428;28;20032;-81
2022/06/18 06:52:43;;;;;;;4.38;2.55;;;27.90;52.30;;;;;;5075647;28;20016;-75
2022/06/18 06:58:17;;;;;;;4.70;2.45;;;28.30;51.60;;;;;;5095107;28;20077;-78
2022/06/18 07:00:46;;;;;;;5.13;2.80;;;28.80;52.00;;;;;;5094734;28;20020;-76
2022/06/18 07:03:14;;;;;;;4.43;2.80;;;29.10;50.80;;;;;;5094449;28;20501;-80
2022/06/18 07:05:40;;;;;;;3.95;2.50;;;29.20;51.20;;;;;;5095053;28;20423;-84
2022/06/18 07:08:06;;;;;;;3.88;2.47;;;29.10;50.60;;;;;;5094450;28;20498;-76
2022/06/18 07:10:32;;;;;;;4.35;2.60;;;29.00;50.90;;;;;;5093249;28;20115;-77
2022/06/18 07:12:58;;;;;;;5.03;3.03;;;29.20;51.50;;;;;;5093952;28;20022;-77
2022/06/18 07:15:24;;;;;;;13.25;2.90;;;29.40;51.50;;;;;;5094419;28;20028;-78
2022/06/18 07:17:50;;;;;;;7.10;3.00;;;29.60;50.10;;;;;;5093942;28;20082;-76
2022/06/18 07:20:18;;;;;;;3.53;2.53;;;29.60;50.30;;;;;;4738948;28;10000361;-78
2022/06/18 07:22:44;;;;;;;4.32;2.80;;;29.70;50.40;;;;;;5070604;28;20479;-80
2022/06/18 07:25:12;;;;;;;4.20;2.70;;;29.90;50.20;;;;;;5075500;28;20039;-80
2022/06/18 07:27:38;;;;;;;4.28;2.97;;;29.70;49.60;;;;;;5075928;28;20020;-77
2022/06/18 07:30:07;;;;;;;4.30;2.78;;;29.40;50.30;;;;;;5094676;28;20028;-78
2022/06/18 07:32:33;;;;;;;3.78;2.78;;;29.30;50.00;;;;;;5076304;28;20032;-76
2022/06/18 07:34:59;;;;;;;6.13;2.85;;;29.20;50.40;;;;;;5094787;28;20042;-79
2022/06/18 07:37:25;;;;;;;4.63;2.65;;;29.00;51.10;;;;;;5077024;28;20073;-91
2022/06/18 07:39:51;;;;;;;5.25;2.80;;;29.30;51.20;;;;;;5075954;28;20024;-86
2022/06/18 07:42:20;;;;;;;4.85;2.50;;;29.50;49.30;;;;;;5076674;28;20028;-79
2022/06/18 07:44:45;;;;;;;7.38;2.65;;;29.60;50.20;;;;;;5094754;28;20020;-82
2022/06/18 07:47:17;;;;;;;4.88;2.60;;;29.50;49.20;;;;;;5095105;28;20403;-83
2022/06/18 07:49:45;;;;;;;3.80;2.80;;;29.40;48.80;;;;;;5076521;28;20498;-84
2022/06/18 07:52:13;;;;;;;3.53;2.50;;;29.30;50.10;;;;;;5076777;28;20428;-81
2022/06/18 07:54:40;;;;;;;4.15;2.72;;;29.10;50.50;;;;;;5076656;28;20069;-85
2022/06/18 07:57:06;;;;;;;3.95;2.80;;;29.40;50.70;;;;;;5094929;28;20032;-79
2022/06/18 07:59:32;;;;;;;4.78;2.80;;;29.70;50.70;;;;;;5076351;28;20398;-84
2022/06/18 08:01:58;;;;;;;4.95;3.00;;;29.80;50.40;;;;;;5076781;28;20494;-83
2022/06/18 08:04:24;;;;;;;4.05;3.17;;;30.00;50.80;;;;;;5095035;28;20039;-82
2022/06/18 08:06:53;;;;;;;5.07;3.40;;;29.80;49.90;;;;;;5076658;28;20020;-82
2022/06/18 08:09:19;;;;;;;6.20;3.58;;;29.80;50.20;;;;;;5076220;28;20032;-81
2022/06/18 08:11:45;;;;;;;4.97;3.28;;;30.00;50.60;;;;;;5094272;28;20441;-84
2022/06/18 08:14:12;;;;;;;6.90;3.50;;;30.30;50.40;;;;;;5076514;28;20031;-83
2022/06/18 08:16:37;;;;;;;4.93;3.58;;;30.50;50.10;;;;;;5076000;28;20046;-77
2022/06/18 08:19:05;;;;;;;5.00;3.50;;;30.30;49.40;;;;;;5094594;28;20079;-85
2022/06/18 08:21:35;;;;;;;6.13;3.70;;;30.30;48.90;;;;;;5073459;28;20029;-81
2022/06/18 08:24:10;;;;;;;5.75;3.30;;;30.10;48.60;;;;;;5056369;28;20067;-80
2022/06/18 08:26:38;;;;;;;6.95;3.42;;;30.30;49.10;;;;;;5094499;28;20537;-85
2022/06/18 08:29:12;;;;;;;5.40;3.47;;;30.50;48.90;;;;;;5075688;28;20032;-81
2022/06/18 08:31:44;;;;;;;5.13;2.85;;;30.60;49.40;;;;;;5076794;28;20367;-87
2022/06/18 08:34:10;;;;;;;6.43;3.28;;;30.60;48.90;;;;;;5094171;28;20099;-86
2022/06/18 08:36:38;;;;;;;6.65;3.22;;;30.60;47.50;;;;;;5076605;28;20554;-78
2022/06/18 08:39:05;;;;;;;5.10;3.10;;;30.60;49.20;;;;;;5095047;28;20441;-83
2022/06/18 08:41:58;;;;;;;5.22;2.97;;;30.70;49.00;;;;;;5076091;28;20058;-84
2022/06/18 08:44:47;;;;;;;4.70;3.10;;;30.70;48.60;;;;;;5076185;28;20032;-82
2022/06/18 08:47:21;;;;;;;5.13;3.17;;;30.70;48.10;;;;;;5094567;28;20498;-81
2022/06/18 08:50:18;;;;;;;5.47;3.35;;;30.20;47.70;;;;;;5076036;28;20462;-84
2022/06/18 08:53:09;;;;;;;4.43;3.40;;;30.40;48.70;;;;;;5074898;28;20073;-80
2022/06/18 08:55:43;;;;;;;3.83;2.90;;;30.90;47.90;;;;;;5093064;28;20024;-77
2022/06/18 08:58:41;;;;;;;6.00;2.90;;;31.10;47.20;;;;;;5093429;28;20470;-76
2022/06/18 09:01:19;;;;;;;5.28;2.85;;;31.30;46.60;;;;;;5084027;28;20112;-78
2022/06/18 09:04:03;;;;;;;5.13;3.10;;;31.70;46.90;;;;;;5075521;28;20028;-78
2022/06/18 09:07:00;;;;;;;4.90;2.90;;;31.80;46.90;;;;;;4713104;28;10000523;-85
2022/06/18 09:09:54;;;;;;;8.50;3.25;;;31.50;47.00;;;;;;5055061;28;20348;-89
2022/06/18 09:12:37;;;;;;;4.63;3.03;;;31.00;46.40;;;;;;5055038;28;20127;-81
2022/06/18 09:15:17;;;;;;;5.90;2.97;;;30.80;47.60;;;;;;5055220;28;20479;-84
2022/06/18 09:17:56;;;;;;;4.00;2.85;;;30.70;47.80;;;;;;5054054;28;20434;-84
2022/06/18 09:20:51;;;;;;;5.80;2.90;;;31.10;48.50;;;;;;5054779;28;20480;-86
2022/06/18 09:23:27;;;;;;;7.20;2.85;;;31.20;47.50;;;;;;5072062;28;20800;-85
2022/06/18 09:25:55;;;;;;;3.92;2.75;;;31.50;48.10;;;;;;5053881;28;20056;-84
2022/06/18 09:28:32;;;;;;;6.45;3.00;;;31.80;46.90;;;;;;5052438;28;20033;-77
2022/06/18 09:31:14;;;;;;;5.07;2.78;;;31.80;47.80;;;;;;5082484;28;20081;-78
2022/06/18 09:33:46;;;;;;;5.55;2.95;;;32.10;47.40;;;;;;5072757;28;20028;-81
2022/06/18 09:36:19;;;;;;;3.72;2.70;;;32.00;46.30;;;;;;5091802;28;20046;-79
2022/06/18 09:38:54;;;;;;;5.32;2.88;;;32.00;47.30;;;;;;5090795;28;20051;-82
2022/06/18 09:41:34;;;;;;;3.97;2.80;;;32.10;47.60;;;;;;5075424;28;20050;-89
2022/06/18 09:43:59;;;;;;;4.50;2.55;;;31.90;47.30;;;;;;5074817;28;20077;-78
2022/06/18 09:46:31;;;;;;;4.68;2.80;;;32.10;48.20;;;;;;5074832;28;20024;-81
2022/06/18 09:49:00;;;;;;;5.30;2.85;;;32.40;47.30;;;;;;5093330;28;20031;-84
2022/06/18 09:51:58;;;;;;;6.00;2.72;;;32.50;47.60;;;;;;5075443;28;20030;-78
2022/06/18 09:54:28;;;;;;;6.30;3.10;;;32.30;47.20;;;;;;5074375;28;20044;-76
2022/06/18 09:57:00;;;;;;;6.03;2.90;;;32.20;47.10;;;;;;5074854;28;20020;-80
2022/06/18 09:59:32;;;;;;;5.45;3.00;;;32.00;47.50;;;;;;5068691;28;20088;-79
2022/06/18 10:01:58;;;;;;;5.22;2.92;;;32.10;47.80;;;;;;5055467;28;20509;-87
2022/06/18 10:07:21;;;;;;;4.03;2.67;;;32.20;47.10;;;;;;5076386;28;20063;-84
2022/06/18 10:09:53;;;;;;;5.10;2.90;;;32.00;46.90;;;;;;5075971;28;20031;-82
2022/06/18 10:12:27;;;;;;;3.80;2.70;;;31.90;48.10;;;;;;5075830;28;20021;-89
2022/06/18 10:14:56;;;;;;;4.38;2.78;;;32.00;47.80;;;;;;5056784;28;20028;-78
2022/06/18 10:17:49;;;;;;;6.35;2.70;;;32.30;48.50;;;;;;5073465;28;20016;-79
2022/06/18 10:20:45;;;;;;;4.22;2.50;;;32.70;47.00;;;;;;5074030;28;20036;-77
2022/06/18 10:23:53;;;;;;;6.25;2.50;;;32.90;47.30;;;;;;5070792;28;20085;-91
2022/06/18 10:26:41;;;;;;;3.90;2.72;;;32.40;46.40;;;;;;5011700;28;20072;-86
2022/06/18 10:29:40;;;;;;;6.22;3.05;;;32.00;47.10;;;;;;4996990;28;20033;-87
2022/06/18 10:32:37;;;;;;;3.72;2.50;;;31.60;47.50;;;;;;4996287;28;20073;-87
2022/06/18 10:38:31;;;;;;;4.55;2.60;;;31.70;47.50;;;;;;5012799;28;20056;-80
2022/06/18 10:41:06;;;;;;;4.47;2.72;;;31.90;47.50;;;;;;5011961;28;20189;-87
2022/06/18 10:43:49;;;;;;;4.47;2.63;;;32.40;47.70;;;;;;4994504;28;20033;-80
2022/06/18 10:46:20;;;;;;;4.95;2.63;;;32.70;46.70;;;;;;5005176;28;20030;-85
2022/06/18 10:49:01;;;;;;;16.70;3.33;;;33.10;46.10;;;;;;4992552;28;20030;-87
2022/06/18 10:51:29;;;;;;;4.45;2.58;;;33.20;46.60;;;;;;4993304;28;20036;-84
2022/06/18 10:54:02;;;;;;;3.63;2.80;;;33.10;46.10;;;;;;4995183;28;20068;-80
2022/06/18 10:56:31;;;;;;;4.25;2.63;;;32.90;45.60;;;;;;5012817;28;20033;-82
2022/06/18 10:59:00;;;;;;;4.28;2.47;;;32.50;46.30;;;;;;4995236;28;20065;-76
2022/06/18 11:01:46;;;;;;;3.92;2.40;;;32.90;45.50;;;;;;5012941;28;20033;-81
2022/06/18 11:04:26;;;;;;;4.40;2.60;;;32.90;46.20;;;;;;5053304;28;20036;-80
2022/06/18 11:07:04;;;;;;;4.15;2.70;;;32.80;44.90;;;;;;5056315;28;20033;-89
2022/06/18 11:09:34;;;;;;;3.78;2.20;;;31.90;45.70;;;;;;4706351;28;10000015;-84
2022/06/18 11:12:09;;;;;;;4.17;2.50;;;31.50;45.70;;;;;;5074150;28;20078;-84
2022/06/18 11:14:42;;;;;;;5.15;2.50;;;31.70;46.30;;;;;;5071531;28;20330;-74
2022/06/18 11:17:28;;;;;;;4.43;2.70;;;32.00;47.30;;;;;;5066690;28;20039;-79
2022/06/18 11:20:05;;;;;;;3.53;2.50;;;32.40;47.60;;;;;;5057797;28;20364;-76
2022/06/18 11:22:32;;;;;;;7.07;2.40;;;32.90;46.90;;;;;;5071444;28;20036;-82
2022/06/18 11:25:00;;;;;;;5.45;2.55;;;33.10;45.80;;;;;;5067491;28;20109;-80
2022/06/18 11:27:33;;;;;;;4.45;2.70;;;33.10;45.40;;;;;;5074218;28;20025;-82
2022/06/18 11:30:04;;;;;;;3.88;2.60;;;32.80;44.70;;;;;;5073359;28;20035;-81
2022/06/18 11:32:37;;;;;;;5.40;2.50;;;32.40;45.60;;;;;;5052684;28;20511;-79
2022/06/18 11:35:18;;;;;;;5.13;2.60;;;31.70;45.10;;;;;;5063830;28;20112;-92
2022/06/18 11:37:54;;;;;;;4.03;2.72;;;30.80;46.10;;;;;;5075943;28;20055;-78
2022/06/18 11:40:20;;;;;;;3.60;2.20;;;31.20;46.80;;;;;;5057602;28;20355;-86
2022/06/18 11:43:00;;;;;;;3.88;2.30;;;32.10;46.10;;;;;;5070675;28;20040;-76
2022/06/18 11:45:44;;;;;;;4.32;2.70;;;32.60;44.90;;;;;;5069318;28;20016;-77
2022/06/18 11:48:38;;;;;;;4.18;2.40;;;33.10;44.60;;;;;;5071653;28;20035;-77
2022/06/18 11:51:10;;;;;;;5.03;2.70;;;33.20;43.60;;;;;;5075485;28;20016;-78
2022/06/18 11:53:46;;;;;;;4.63;2.40;;;33.00;45.60;;;;;;5067334;28;20056;-78
2022/06/18 11:56:40;;;;;;;5.55;2.70;;;32.90;45.50;;;;;;5056080;28;20024;-78
2022/06/18 11:59:22;;;;;;;3.42;2.33;;;33.00;44.70;;;;;;5055377;28;20068;-85
2022/06/18 12:02:02;;;;;;;3.92;2.55;;;33.30;45.60;;;;;;5078051;28;20016;-77
2022/06/18 12:04:41;;;;;;;3.40;2.20;;;32.70;44.70;;;;;;5086603;28;20021;-89
2022/06/18 12:07:26;;;;;;;3.00;2.20;;;32.20;45.90;;;;;;5068494;28;20043;-83
2022/06/18 12:09:52;;;;;;;4.53;2.40;;;32.10;45.70;;;;;;5073147;28;20486;-79
2022/06/18 12:12:24;;;;;;;7.30;2.53;;;32.10;44.30;;;;;;5094730;28;20039;-89
2022/06/18 12:15:04;;;;;;;3.72;2.35;;;32.30;45.10;;;;;;5075150;28;20031;-89
2022/06/18 12:17:33;;;;;;;5.18;2.55;;;31.90;46.00;;;;;;5075599;28;20020;-82
2022/06/18 12:20:18;;;;;;;4.72;3.00;;;31.60;47.10;;;;;;5076616;28;20067;-84
2022/06/18 12:23:09;;;;;;;5.55;2.60;;;31.40;46.10;;;;;;5094449;28;20020;-86
2022/06/18 12:25:56;;;;;;;5.60;2.85;;;31.90;46.10;;;;;;5076562;28;20024;-83
2022/06/18 12:29:17;;;;;;;5.28;2.53;;;32.60;45.90;;;;;;4716006;28;9999819;-85
2022/06/18 12:32:13;;;;;;;3.72;2.50;;;31.80;45.10;;;;;;4983263;28;20683;-82
2022/06/18 12:34:58;;;;;;;5.25;2.88;;;31.80;46.40;;;;;;4989659;28;20042;-82
2022/06/18 12:37:26;;;;;;;5.00;2.50;;;32.10;45.00;;;;;;4991347;28;20046;-89
2022/06/18 12:40:31;;;;;;;3.55;2.30;;;32.30;44.40;;;;;;4971191;28;20038;-89
2022/06/18 12:43:13;;;;;;;3.80;2.20;;;31.80;45.00;;;;;;4964630;28;20154;-85
2022/06/18 12:46:14;;;;;;;3.50;2.20;;;31.50;45.50;;;;;;4972947;28;20038;-86
2022/06/18 12:48:46;;;;;;;5.53;2.33;;;31.60;44.80;;;;;;4977771;28;20038;-83
2022/06/18 12:51:26;;;;;;;3.85;2.20;;;31.60;44.10;;;;;;4974425;28;20065;-90
2022/06/18 12:54:07;;;;;;;3.17;2.10;;;31.30;44.30;;;;;;4974774;28;20030;-81
2022/06/18 12:56:34;;;;;;;3.30;2.10;;;31.20;45.20;;;;;;4974059;28;20029;-85
2022/06/18 12:59:24;;;;;;;4.75;2.10;;;31.40;45.50;;;;;;4986547;28;20535;-84
2022/06/18 13:02:15;;;;;;;5.23;2.53;;;31.70;45.00;;;;;;4992483;28;20081;-79
2022/06/18 13:04:54;;;;;;;4.55;2.10;;;32.20;44.50;;;;;;4997178;28;20022;-83
2022/06/18 13:07:43;;;;;;;3.97;2.25;;;31.80;42.50;;;;;;5055619;28;20028;-88
2022/06/18 13:10:27;;;;;;;4.93;2.00;;;32.20;44.00;;;;;;5072634;28;20021;-84
2022/06/18 13:13:20;;;;;;;4.32;2.10;;;32.80;43.50;;;;;;5075333;28;20024;-89
2022/06/18 13:15:54;;;;;;;3.45;2.20;;;32.60;42.10;;;;;;5092244;28;20031;-84
2022/06/18 13:18:36;;;;;;;5.38;1.90;;;32.00;44.20;;;;;;5073917;28;20057;-86
2022/06/18 13:21:05;;;;;;;3.97;2.00;;;31.40;42.70;;;;;;5054930;28;20022;-86
2022/06/18 13:29:51;;;;;;;5.45;2.05;;;32.20;42.20;;;;;;5094052;28;20034;-90
2022/06/18 13:32:22;;;;;;;7.72;2.55;;;32.40;41.00;;;;;;5015935;28;20041;-89
2022/06/18 13:35:12;;;;;;;5.55;2.33;;;32.60;43.30;;;;;;5013164;28;20037;-80
2022/06/18 13:37:58;;;;;;;3.63;2.22;;;32.80;42.40;;;;;;5014559;28;20057;-84